Terminal Aerodrome Forecast
Issued by NWS Pocatello, ID

Home | Current Version | Previous Version | Text Only | Print | Product List | Glossary On
Versions: 1 2 3 4 5 6 7 8 9 10 11 12 13 14 15 16 17 18 19
000
FTUS45 KPIH 220500
TAFPIH
TAF
KPIH 220520Z 2206/2306 05006KT P6SM BKN110 BKN180
     FM220800 07006KT P6SM -SHRA SCT070 BKN130 BKN180
     FM221700 24015KT P6SM -SHRA VCTS SCT040 BKN080CB OVC160
     FM222200 24008KT P6SM VCTS FEW060CB BKN140 OVC180
     FM230200 16008KT P6SM FEW060 SCT120 SCT180=

USA.gov is the U.S. government's official web portal to all federal, state and local government web resources and services.